createdAt,value
2018-06-30T00:00:36.549Z,54.71
2018-06-30T00:01:36.541Z,54.71
2018-06-30T00:02:36.535Z,54.69
2018-06-30T00:03:36.531Z,54.69
2018-06-30T00:04:36.526Z,54.59
2018-06-30T00:05:36.522Z,54.71
2018-06-30T00:06:36.515Z,54.69
2018-06-30T00:07:36.512Z,54.49
2018-06-30T00:08:36.508Z,54.69
2018-06-30T00:09:36.503Z,54.39
2018-06-30T00:10:36.496Z,54.52
2018-06-30T00:11:36.492Z,54.69
2018-06-30T00:12:36.490Z,55.07
2018-06-30T00:13:36.485Z,54.49
2018-06-30T00:14:36.479Z,55.17
2018-06-30T00:15:36.473Z,55.07
2018-06-30T00:16:36.471Z,55.17
2018-06-30T00:17:36.466Z,54.98
2018-06-30T00:18:36.462Z,54.88
2018-06-30T00:19:36.456Z,54.79
2018-06-30T00:20:36.452Z,54.79
2018-06-30T00:21:36.448Z,54.98
2018-06-30T00:22:36.442Z,54.79
2018-06-30T00:23:36.441Z,55.00
2018-06-30T00:24:36.438Z,54.98
2018-06-30T00:25:36.429Z,55.17
2018-06-30T00:26:36.424Z,54.81
2018-06-30T00:27:36.417Z,54.79
2018-06-30T00:28:36.418Z,54.79
2018-06-30T00:29:36.411Z,54.88
2018-06-30T00:30:36.430Z,55.07
2018-06-30T00:31:36.404Z,54.98
2018-06-30T00:32:36.396Z,54.98
2018-06-30T00:33:36.392Z,55.07
2018-06-30T00:34:36.387Z,55.07
2018-06-30T00:35:36.382Z,55.07
2018-06-30T00:36:36.378Z,54.98
2018-06-30T00:37:36.374Z,54.88
2018-06-30T00:38:36.371Z,54.69
2018-06-30T00:39:36.363Z,55.07
2018-06-30T00:40:36.360Z,55.17
2018-06-30T00:41:36.355Z,55.07
2018-06-30T00:42:36.349Z,55.07
2018-06-30T00:43:36.345Z,54.98
2018-06-30T00:44:36.341Z,54.98
2018-06-30T00:45:36.337Z,54.98
2018-06-30T00:46:36.331Z,54.98
2018-06-30T00:47:36.329Z,55.07
2018-06-30T00:48:36.337Z,55.07
2018-06-30T00:49:36.318Z,54.88
2018-06-30T00:50:36.313Z,54.98
2018-06-30T00:51:36.308Z,55.07
2018-06-30T00:52:36.305Z,55.07
2018-06-30T00:53:36.299Z,54.98
2018-06-30T00:54:36.295Z,54.98
2018-06-30T00:55:36.292Z,54.98
2018-06-30T00:56:36.285Z,54.98
2018-06-30T00:57:36.282Z,55.07
2018-06-30T00:58:36.275Z,54.98
2018-06-30T00:59:36.271Z,54.98
2018-06-30T01:00:36.270Z,54.98
2018-06-30T01:01:36.262Z,54.98
2018-06-30T01:02:36.262Z,55.07
2018-06-30T01:03:36.252Z,54.98
2018-06-30T01:04:36.248Z,54.98
2018-06-30T01:05:36.245Z,54.98
2018-06-30T01:06:36.241Z,54.98
2018-06-30T01:07:36.235Z,55.07
2018-06-30T01:08:36.232Z,55.07
2018-06-30T01:09:36.225Z,54.98
2018-06-30T01:10:36.221Z,55.07
2018-06-30T01:11:36.216Z,54.98
2018-06-30T01:12:36.211Z,54.98
2018-06-30T01:13:36.207Z,55.07
2018-06-30T01:14:36.202Z,55.07
2018-06-30T01:15:36.197Z,55.07
2018-06-30T01:16:36.193Z,55.07
2018-06-30T01:17:36.189Z,55.07
2018-06-30T01:18:36.183Z,55.07
2018-06-30T01:19:36.180Z,54.69
2018-06-30T01:20:36.176Z,55.07
2018-06-30T01:21:36.170Z,54.98
2018-06-30T01:22:36.164Z,54.98
2018-06-30T01:23:36.160Z,54.98
2018-06-30T01:24:36.161Z,54.98
2018-06-30T01:25:36.152Z,55.07
2018-06-30T01:26:36.146Z,54.98
2018-06-30T01:27:36.141Z,55.17
2018-06-30T01:28:36.177Z,54.88
2018-06-30T01:29:36.133Z,54.98
2018-06-30T01:30:36.128Z,54.98
2018-06-30T01:31:36.125Z,55.07
2018-06-30T01:32:36.119Z,54.98
2018-06-30T01:33:36.113Z,54.98
2018-06-30T01:34:36.112Z,55.07
2018-06-30T01:35:36.105Z,54.88
2018-06-30T01:36:36.100Z,54.69
2018-06-30T01:37:36.098Z,54.88
2018-06-30T01:38:36.090Z,54.98
2018-06-30T01:39:36.089Z,54.88
2018-06-30T01:40:36.081Z,54.79
2018-06-30T01:41:36.077Z,55.17
2018-06-30T01:42:36.072Z,55.27
2018-06-30T01:43:36.067Z,54.79
2018-06-30T01:44:36.064Z,55.27
2018-06-30T01:45:36.057Z,54.88
2018-06-30T01:46:36.058Z,55.27
2018-06-30T01:47:36.049Z,55.27
2018-06-30T01:48:36.045Z,55.27
2018-06-30T01:49:36.040Z,55.36
2018-06-30T01:50:36.033Z,55.46
2018-06-30T01:51:36.035Z,55.07
2018-06-30T01:52:36.025Z,55.36
2018-06-30T01:53:36.021Z,55.17
2018-06-30T01:54:36.015Z,55.66
2018-06-30T01:55:36.015Z,55.56
2018-06-30T01:56:36.011Z,55.36
2018-06-30T01:57:36.002Z,55.17
2018-06-30T01:58:35.997Z,55.36
2018-06-30T01:59:35.995Z,55.17
2018-06-30T02:00:35.987Z,55.27
2018-06-30T02:01:35.984Z,55.36
2018-06-30T02:02:35.979Z,55.17
2018-06-30T02:03:35.977Z,55.36
2018-06-30T02:04:35.969Z,55.36
2018-06-30T02:05:35.964Z,55.46
2018-06-30T02:06:35.959Z,55.27
2018-06-30T02:07:35.950Z,55.46
2018-06-30T02:08:35.951Z,55.36
2018-06-30T02:09:35.950Z,55.17
2018-06-30T02:10:35.940Z,55.36
2018-06-30T02:11:35.948Z,55.17
2018-06-30T02:12:35.932Z,55.27
2018-06-30T02:13:35.931Z,55.17
2018-06-30T02:14:35.922Z,55.17
2018-06-30T02:15:35.920Z,55.17
2018-06-30T02:16:35.913Z,55.17
2018-06-30T02:17:35.913Z,55.17
2018-06-30T02:18:35.903Z,55.17
2018-06-30T02:19:35.898Z,55.17
2018-06-30T02:20:35.896Z,55.46
2018-06-30T02:21:35.897Z,55.17
2018-06-30T02:22:35.888Z,55.17
2018-06-30T02:23:35.909Z,55.17
2018-06-30T02:24:35.875Z,55.46
2018-06-30T02:25:35.869Z,55.17
2018-06-30T02:26:35.864Z,55.36
2018-06-30T02:27:35.860Z,55.36
2018-06-30T02:28:35.857Z,55.56
2018-06-30T02:29:35.852Z,55.63
2018-06-30T02:30:35.846Z,55.46
2018-06-30T02:31:35.841Z,55.43
2018-06-30T02:32:35.838Z,55.36
2018-06-30T02:33:35.835Z,55.43
2018-06-30T02:34:35.829Z,55.43
2018-06-30T02:35:35.824Z,55.43
2018-06-30T02:36:35.841Z,55.63
2018-06-30T02:37:35.809Z,55.53
2018-06-30T02:38:35.808Z,55.56
2018-06-30T02:39:35.805Z,55.34
2018-06-30T02:40:35.810Z,55.43
2018-06-30T02:41:35.799Z,55.34
2018-06-30T02:42:35.792Z,55.34
2018-06-30T02:43:35.786Z,55.34
2018-06-30T02:44:35.780Z,55.53
2018-06-30T02:45:35.781Z,55.53
2018-06-30T02:46:35.861Z,55.34
2018-06-30T02:47:35.772Z,55.34
2018-06-30T02:48:35.765Z,55.15
2018-06-30T02:49:35.759Z,55.15
2018-06-30T02:50:35.752Z,55.34
2018-06-30T02:51:35.748Z,55.15
2018-06-30T02:52:35.741Z,55.34
2018-06-30T02:53:35.738Z,55.34
2018-06-30T02:54:35.737Z,55.63
2018-06-30T02:55:35.729Z,55.34
2018-06-30T02:56:35.724Z,55.43
2018-06-30T02:57:35.720Z,55.34
2018-06-30T02:58:35.713Z,55.43
2018-06-30T02:59:35.728Z,55.53
2018-06-30T03:00:35.705Z,55.43
2018-06-30T03:01:35.702Z,55.34
2018-06-30T03:02:35.696Z,56.11
2018-06-30T03:03:35.693Z,55.24
2018-06-30T03:04:35.685Z,55.43
2018-06-30T03:05:35.682Z,55.82
2018-06-30T03:06:35.677Z,55.43
2018-06-30T03:07:35.671Z,55.34
2018-06-30T03:08:35.667Z,55.43
2018-06-30T03:09:35.657Z,55.43
2018-06-30T03:10:35.655Z,55.34
2018-06-30T03:11:35.655Z,55.24
2018-06-30T03:12:35.648Z,55.34
2018-06-30T03:13:35.642Z,55.43
2018-06-30T03:14:35.645Z,55.34
2018-06-30T03:15:35.634Z,55.82
2018-06-30T03:16:35.629Z,55.43
2018-06-30T03:17:35.625Z,55.43
2018-06-30T03:18:35.617Z,55.43
2018-06-30T03:19:35.614Z,55.63
2018-06-30T03:20:35.608Z,55.34
2018-06-30T03:21:35.605Z,55.43
2018-06-30T03:22:35.600Z,55.63
2018-06-30T03:23:35.601Z,55.24
2018-06-30T03:24:35.590Z,55.34
2018-06-30T03:25:35.585Z,55.34
2018-06-30T03:26:35.580Z,55.24
2018-06-30T03:27:35.577Z,55.43
2018-06-30T03:28:35.571Z,55.34
2018-06-30T03:29:35.566Z,55.15
2018-06-30T03:30:35.559Z,55.15
2018-06-30T03:31:35.593Z,55.15
2018-06-30T03:32:35.552Z,55.15
2018-06-30T03:33:35.547Z,55.43
2018-06-30T03:34:35.541Z,55.34
2018-06-30T03:35:35.563Z,55.34
2018-06-30T03:36:35.531Z,55.73
2018-06-30T03:37:35.526Z,55.24
2018-06-30T03:38:35.536Z,55.53
2018-06-30T03:39:35.517Z,55.53
2018-06-30T03:40:35.512Z,55.63
2018-06-30T03:41:35.507Z,55.43
2018-06-30T03:42:35.504Z,55.24
2018-06-30T03:43:35.498Z,55.34
2018-06-30T03:44:35.495Z,55.34
2018-06-30T03:45:35.488Z,55.34
2018-06-30T03:46:35.483Z,55.73
2018-06-30T03:47:35.479Z,55.34
2018-06-30T03:48:35.474Z,55.53
2018-06-30T03:49:35.472Z,55.34
2018-06-30T03:50:35.465Z,55.34
2018-06-30T03:51:35.459Z,55.24
2018-06-30T03:52:35.454Z,55.53
2018-06-30T03:53:35.450Z,55.73
2018-06-30T03:54:35.444Z,55.34
2018-06-30T03:55:35.439Z,55.24
2018-06-30T03:56:35.436Z,55.73
2018-06-30T03:57:35.435Z,55.43
2018-06-30T03:58:35.426Z,55.43
2018-06-30T03:59:35.421Z,55.53
2018-06-30T04:00:35.416Z,55.53
2018-06-30T04:01:35.412Z,55.53
2018-06-30T04:02:35.406Z,55.34
2018-06-30T04:03:35.402Z,55.34
2018-06-30T04:04:35.396Z,55.34
2018-06-30T04:05:35.391Z,55.82
2018-06-30T04:06:35.387Z,55.34
2018-06-30T04:07:35.381Z,55.34
2018-06-30T04:08:35.377Z,55.34
2018-06-30T04:09:35.372Z,55.34
2018-06-30T04:10:35.366Z,55.24
2018-06-30T04:11:35.363Z,56.02
2018-06-30T04:12:35.360Z,56.11
2018-06-30T04:13:35.354Z,56.11
2018-06-30T04:14:35.353Z,55.43
2018-06-30T04:15:35.343Z,56.11
2018-06-30T04:16:35.339Z,55.34
2018-06-30T04:17:35.335Z,56.02
2018-06-30T04:18:35.327Z,55.34
2018-06-30T04:19:35.324Z,55.43
2018-06-30T04:20:35.318Z,56.11
2018-06-30T04:21:35.313Z,55.24
2018-06-30T04:22:35.308Z,56.02
2018-06-30T04:23:35.304Z,56.11
2018-06-30T04:24:35.302Z,56.11
2018-06-30T04:25:35.359Z,56.02
2018-06-30T04:26:35.299Z,56.02
2018-06-30T04:27:35.285Z,55.73
2018-06-30T04:28:35.279Z,55.73
2018-06-30T04:29:35.275Z,55.82
2018-06-30T04:30:35.269Z,55.82
2018-06-30T04:31:35.265Z,55.73
2018-06-30T04:32:35.263Z,55.73
2018-06-30T04:33:35.256Z,55.82
2018-06-30T04:34:35.250Z,55.92
2018-06-30T04:35:35.247Z,55.82
2018-06-30T04:36:35.241Z,55.82
2018-06-30T04:37:35.236Z,56.11
2018-06-30T04:38:35.230Z,55.82
2018-06-30T04:39:35.226Z,55.82
2018-06-30T04:40:35.221Z,55.73
2018-06-30T04:41:35.217Z,55.24
2018-06-30T04:42:35.211Z,56.11
2018-06-30T04:43:35.206Z,55.82
2018-06-30T04:44:35.209Z,55.63
2018-06-30T04:45:35.198Z,55.63
2018-06-30T04:46:35.191Z,56.11
2018-06-30T04:47:35.187Z,56.11
2018-06-30T04:48:35.183Z,56.02
2018-06-30T04:49:35.181Z,55.82
2018-06-30T04:50:35.172Z,56.02
2018-06-30T04:51:35.165Z,55.73
2018-06-30T04:52:35.161Z,55.34
2018-06-30T04:53:35.156Z,56.02
2018-06-30T04:54:35.153Z,56.02
2018-06-30T04:55:35.147Z,56.02
2018-06-30T04:56:35.145Z,55.34
2018-06-30T04:57:35.145Z,55.34
2018-06-30T04:58:35.132Z,56.02
2018-06-30T04:59:35.128Z,55.34
2018-06-30T05:00:35.124Z,55.34
2018-06-30T05:01:35.118Z,55.43
2018-06-30T05:02:35.115Z,55.53
2018-06-30T05:03:35.108Z,55.53
2018-06-30T05:04:35.105Z,55.53
2018-06-30T05:05:35.100Z,55.43
2018-06-30T05:06:35.094Z,55.53
2018-06-30T05:07:35.090Z,55.43
2018-06-30T05:08:35.086Z,55.53
2018-06-30T05:09:35.080Z,55.43
2018-06-30T05:10:35.074Z,55.43
2018-06-30T05:11:35.071Z,55.53
2018-06-30T05:12:35.066Z,55.53
2018-06-30T05:13:35.059Z,55.53
2018-06-30T05:14:35.055Z,55.34
2018-06-30T05:15:35.050Z,55.63
2018-06-30T05:16:35.048Z,55.43
2018-06-30T05:17:35.041Z,55.43
2018-06-30T05:18:35.034Z,55.34
2018-06-30T05:19:35.032Z,55.73
2018-06-30T05:20:35.029Z,55.63
2018-06-30T05:21:35.022Z,55.73
2018-06-30T05:22:35.021Z,55.43
2018-06-30T05:23:35.011Z,55.34
2018-06-30T05:24:35.007Z,55.24
2018-06-30T05:25:35.002Z,55.53
2018-06-30T05:26:34.997Z,55.43
2018-06-30T05:27:35.001Z,55.63
2018-06-30T05:28:34.991Z,55.63
2018-06-30T05:29:34.982Z,55.34
2018-06-30T05:30:34.977Z,55.24
2018-06-30T05:31:34.974Z,55.24
2018-06-30T05:32:34.971Z,55.34
2018-06-30T05:33:35.050Z,55.46
2018-06-30T05:34:34.958Z,55.36
2018-06-30T05:35:34.951Z,55.15
2018-06-30T05:36:34.949Z,55.43
2018-06-30T05:37:34.943Z,55.15
2018-06-30T05:38:34.938Z,55.15
2018-06-30T05:39:34.934Z,55.43
2018-06-30T05:40:34.930Z,55.43
2018-06-30T05:41:34.925Z,55.46
2018-06-30T05:42:34.921Z,55.43
2018-06-30T05:43:34.915Z,55.27
2018-06-30T05:44:34.912Z,55.36
2018-06-30T05:45:34.905Z,55.17
2018-06-30T05:46:34.900Z,55.27
2018-06-30T05:47:34.895Z,55.17
2018-06-30T05:48:34.891Z,55.24
2018-06-30T05:49:34.886Z,54.69
2018-06-30T05:50:34.882Z,55.07
2018-06-30T05:51:34.875Z,54.88
2018-06-30T05:52:34.872Z,55.07
2018-06-30T05:53:34.866Z,55.07
2018-06-30T05:54:34.869Z,55.07
2018-06-30T05:55:34.856Z,55.17
2018-06-30T05:56:34.851Z,55.07
2018-06-30T05:57:34.847Z,54.88
2018-06-30T05:58:34.841Z,54.88
2018-06-30T05:59:34.837Z,55.07
2018-06-30T06:00:34.830Z,55.07
2018-06-30T06:01:34.832Z,54.98
2018-06-30T06:02:34.821Z,54.98
2018-06-30T06:03:34.817Z,54.98
2018-06-30T06:04:34.812Z,54.88
2018-06-30T06:05:34.808Z,55.17
2018-06-30T06:06:34.804Z,55.17
2018-06-30T06:07:34.799Z,54.98
2018-06-30T06:08:34.795Z,54.88
2018-06-30T06:09:34.838Z,55.07
2018-06-30T06:10:34.785Z,55.07
2018-06-30T06:11:34.779Z,55.07
2018-06-30T06:12:34.780Z,55.07
2018-06-30T06:13:34.779Z,55.07
2018-06-30T06:14:34.764Z,55.17
2018-06-30T06:15:34.760Z,54.98
2018-06-30T06:16:34.755Z,54.88
2018-06-30T06:17:34.751Z,54.98
2018-06-30T06:18:34.750Z,54.88
2018-06-30T06:19:34.740Z,54.79
2018-06-30T06:20:34.735Z,55.17
2018-06-30T06:21:34.732Z,55.07
2018-06-30T06:22:34.729Z,54.59
2018-06-30T06:23:34.735Z,54.59
2018-06-30T06:24:34.721Z,54.59
2018-06-30T06:25:34.713Z,54.49
2018-06-30T06:26:34.707Z,54.69
2018-06-30T06:27:34.772Z,54.39
2018-06-30T06:28:34.697Z,54.39
2018-06-30T06:29:34.693Z,54.69
2018-06-30T06:30:34.693Z,54.79
2018-06-30T06:31:34.682Z,54.39
2018-06-30T06:32:34.711Z,54.69
2018-06-30T06:33:34.674Z,54.39
2018-06-30T06:34:34.668Z,54.49
2018-06-30T06:35:34.664Z,54.21
2018-06-30T06:36:34.663Z,54.39
2018-06-30T06:37:34.655Z,54.30
2018-06-30T06:38:34.689Z,54.21
2018-06-30T06:39:34.688Z,54.49
2018-06-30T06:40:34.639Z,54.30
2018-06-30T06:41:34.675Z,54.33
2018-06-30T06:42:34.634Z,54.30
2018-06-30T06:43:34.624Z,54.30
2018-06-30T06:44:34.645Z,54.33
2018-06-30T06:45:34.616Z,54.21
2018-06-30T06:46:34.611Z,54.11
2018-06-30T06:47:34.608Z,54.11
2018-06-30T06:48:34.610Z,54.13
2018-06-30T06:49:34.599Z,54.33
2018-06-30T06:50:34.597Z,54.33
2018-06-30T06:51:34.594Z,54.81
2018-06-30T06:52:34.583Z,54.71
2018-06-30T06:53:34.581Z,55.10
2018-06-30T06:54:34.574Z,54.91
2018-06-30T06:55:34.569Z,54.81
2018-06-30T06:56:34.569Z,55.00
2018-06-30T06:57:34.560Z,55.10
2018-06-30T06:58:34.558Z,54.62
2018-06-30T06:59:34.552Z,54.81
2018-06-30T07:00:34.552Z,54.91
2018-06-30T07:01:34.549Z,55.20
2018-06-30T07:02:34.535Z,55.10
2018-06-30T07:03:34.532Z,55.49
2018-06-30T07:04:34.538Z,55.22
2018-06-30T07:05:34.523Z,55.52
2018-06-30T07:06:34.521Z,54.81
2018-06-30T07:07:34.524Z,55.04
2018-06-30T07:08:34.507Z,55.00
2018-06-30T07:09:34.504Z,55.04
2018-06-30T07:10:34.503Z,54.45
2018-06-30T07:11:34.495Z,54.26
2018-06-30T07:12:34.487Z,54.26
2018-06-30T07:13:34.526Z,54.35
2018-06-30T07:14:34.676Z,54.16
2018-06-30T07:15:34.477Z,54.45
2018-06-30T07:16:34.469Z,54.35
2018-06-30T07:17:34.461Z,54.16
2018-06-30T07:18:34.453Z,54.26
2018-06-30T07:19:34.450Z,53.77
2018-06-30T07:20:34.446Z,54.06
2018-06-30T07:21:34.438Z,54.16
2018-06-30T07:22:34.433Z,53.99
2018-06-30T07:23:34.427Z,53.80
2018-06-30T07:24:34.495Z,53.80
2018-06-30T07:25:34.567Z,53.80
2018-06-30T07:26:34.410Z,53.89
2018-06-30T07:27:34.405Z,53.70
2018-06-30T07:28:34.400Z,53.31
2018-06-30T07:29:34.395Z,53.41
2018-06-30T07:30:34.388Z,53.02
2018-06-30T07:31:34.383Z,53.12
2018-06-30T07:32:34.378Z,53.31
2018-06-30T07:33:34.371Z,53.22
2018-06-30T07:34:34.366Z,53.51
2018-06-30T07:35:34.362Z,53.05
2018-06-30T07:36:34.355Z,52.95
2018-06-30T07:37:34.451Z,52.95
2018-06-30T07:38:34.343Z,52.95
2018-06-30T07:39:34.336Z,53.05
2018-06-30T07:40:34.332Z,52.86
2018-06-30T07:41:34.326Z,53.05
2018-06-30T07:42:34.320Z,52.47
2018-06-30T07:43:34.315Z,52.47
2018-06-30T07:44:34.310Z,52.56
2018-06-30T07:45:34.304Z,52.76
2018-06-30T07:46:34.298Z,52.76
2018-06-30T07:47:34.293Z,52.28
2018-06-30T07:48:34.286Z,52.47
2018-06-30T07:49:34.282Z,52.47
2018-06-30T07:50:34.275Z,52.50
2018-06-30T07:51:34.271Z,52.88
2018-06-30T07:52:34.268Z,52.40
2018-06-30T07:53:34.263Z,52.59
2018-06-30T07:54:34.255Z,52.40
2018-06-30T07:55:34.255Z,52.50
2018-06-30T07:56:34.242Z,52.40
2018-06-30T07:57:34.240Z,52.40
2018-06-30T07:58:34.241Z,52.50
2018-06-30T07:59:34.230Z,52.50
2018-06-30T08:00:34.223Z,52.01
2018-06-30T08:01:34.217Z,51.81
2018-06-30T08:02:34.208Z,51.81
2018-06-30T08:03:34.207Z,51.62
2018-06-30T08:04:34.203Z,51.93
2018-06-30T08:05:34.197Z,52.03
2018-06-30T08:06:34.189Z,52.03
2018-06-30T08:07:34.185Z,52.23
2018-06-30T08:08:34.178Z,52.03
2018-06-30T08:09:34.173Z,51.93
2018-06-30T08:10:34.168Z,51.75
2018-06-30T08:11:34.166Z,51.55
2018-06-30T08:12:34.154Z,51.93
2018-06-30T08:13:34.150Z,51.75
2018-06-30T08:14:34.146Z,51.45
2018-06-30T08:15:34.140Z,51.45
2018-06-30T08:16:34.135Z,51.45
2018-06-30T08:17:34.127Z,51.65
2018-06-30T08:18:34.121Z,51.65
2018-06-30T08:19:34.118Z,51.75
2018-06-30T08:20:34.113Z,51.26
2018-06-30T08:21:34.108Z,51.65
2018-06-30T08:22:34.107Z,51.65
2018-06-30T08:23:34.094Z,51.16
2018-06-30T08:24:34.096Z,51.16
2018-06-30T08:25:34.085Z,51.16
2018-06-30T08:26:34.102Z,51.16
2018-06-30T08:27:34.073Z,50.96
2018-06-30T08:28:34.068Z,51.35
2018-06-30T08:29:34.097Z,50.87
2018-06-30T08:30:34.059Z,50.96
2018-06-30T08:31:34.056Z,51.06
2018-06-30T08:32:34.057Z,51.06
2018-06-30T08:33:34.042Z,51.06
2018-06-30T08:34:34.038Z,50.87
2018-06-30T08:35:34.034Z,51.26
2018-06-30T08:36:34.029Z,51.16
2018-06-30T08:37:34.022Z,51.28
2018-06-30T08:38:34.018Z,50.80
2018-06-30T08:39:34.011Z,50.77
2018-06-30T08:40:34.013Z,50.89
2018-06-30T08:41:34.004Z,50.89
2018-06-30T08:42:33.995Z,50.89
2018-06-30T08:43:33.993Z,50.41
2018-06-30T08:44:34.036Z,50.70
2018-06-30T08:45:33.979Z,50.60
2018-06-30T08:46:33.974Z,50.70
2018-06-30T08:47:33.971Z,51.09
2018-06-30T08:48:33.966Z,50.99
2018-06-30T08:49:33.959Z,50.60
2018-06-30T08:50:33.954Z,50.70
2018-06-30T08:51:33.949Z,50.51
2018-06-30T08:52:33.944Z,50.12
2018-06-30T08:53:33.939Z,50.12
2018-06-30T08:54:33.935Z,50.51
2018-06-30T08:55:33.973Z,50.12
2018-06-30T08:56:33.930Z,50.31
2018-06-30T08:57:33.920Z,50.24
2018-06-30T08:58:33.912Z,50.21
2018-06-30T08:59:33.908Z,50.02
2018-06-30T09:00:33.943Z,50.31
2018-06-30T09:01:33.898Z,50.21
2018-06-30T09:02:33.893Z,50.04
2018-06-30T09:03:33.947Z,49.95
2018-06-30T09:04:33.910Z,50.24
2018-06-30T09:05:33.879Z,50.24
2018-06-30T09:06:33.877Z,49.85
2018-06-30T09:07:34.530Z,50.34
2018-06-30T09:08:33.864Z,49.85
2018-06-30T09:09:33.911Z,49.95
2018-06-30T09:10:33.889Z,49.66
2018-06-30T09:11:33.847Z,49.46
2018-06-30T09:12:33.842Z,49.66
2018-06-30T09:13:33.839Z,49.85
2018-06-30T09:14:33.834Z,49.76
2018-06-30T09:15:33.828Z,49.37
2018-06-30T09:16:33.825Z,49.37
2018-06-30T09:17:33.821Z,49.37
2018-06-30T09:18:33.814Z,49.46
2018-06-30T09:19:33.810Z,49.37
2018-06-30T09:20:33.803Z,49.46
2018-06-30T09:21:33.799Z,49.56
2018-06-30T09:22:33.813Z,49.78
2018-06-30T09:23:33.792Z,49.29
2018-06-30T09:24:33.784Z,49.10
2018-06-30T09:25:33.780Z,49.10
2018-06-30T09:26:33.862Z,48.97
2018-06-30T09:27:33.770Z,49.10
2018-06-30T09:28:33.764Z,48.78
2018-06-30T09:29:33.762Z,48.90
2018-06-30T09:30:33.756Z,48.61
2018-06-30T09:31:33.806Z,48.51
2018-06-30T09:32:33.746Z,48.61
2018-06-30T09:33:33.741Z,48.90
2018-06-30T09:34:33.735Z,48.90
2018-06-30T09:35:33.734Z,48.90
2018-06-30T09:36:33.742Z,48.80
2018-06-30T09:37:33.724Z,48.90
2018-06-30T09:38:33.728Z,48.80
2018-06-30T09:39:33.713Z,48.71
2018-06-30T09:40:33.709Z,48.41
2018-06-30T09:41:33.704Z,48.22
2018-06-30T09:42:33.702Z,48.22
2018-06-30T09:43:33.692Z,48.51
2018-06-30T09:44:33.756Z,48.41
2018-06-30T09:45:33.689Z,48.41
2018-06-30T09:46:33.685Z,48.54
2018-06-30T09:47:33.675Z,48.32
2018-06-30T09:48:33.672Z,48.93
2018-06-30T09:49:33.666Z,48.05
2018-06-30T09:50:33.661Z,48.05
2018-06-30T09:51:33.657Z,48.15
2018-06-30T09:52:33.655Z,47.86
2018-06-30T09:53:33.648Z,47.96
2018-06-30T09:54:33.644Z,47.86
2018-06-30T09:55:33.639Z,47.86
2018-06-30T09:56:33.633Z,47.96
2018-06-30T09:57:33.635Z,47.96
2018-06-30T09:58:33.625Z,47.76
2018-06-30T09:59:33.620Z,48.25
2018-06-30T10:00:33.648Z,48.25
2018-06-30T10:01:33.613Z,47.86
2018-06-30T10:02:33.607Z,47.66
2018-06-30T10:03:33.602Z,47.76
2018-06-30T10:04:33.598Z,47.56
2018-06-30T10:05:33.594Z,47.76
2018-06-30T10:06:33.602Z,47.66
2018-06-30T10:07:33.584Z,47.86
2018-06-30T10:08:33.583Z,47.76
2018-06-30T10:09:33.577Z,47.56
2018-06-30T10:10:33.571Z,47.08
2018-06-30T10:11:33.566Z,47.76
2018-06-30T10:12:33.600Z,47.86
2018-06-30T10:13:33.557Z,47.66
2018-06-30T10:14:33.549Z,47.76
2018-06-30T10:15:33.548Z,47.66
2018-06-30T10:16:33.543Z,47.66
2018-06-30T10:17:33.601Z,47.66
2018-06-30T10:18:33.530Z,47.66
2018-06-30T10:19:33.611Z,47.76
2018-06-30T10:20:33.530Z,47.17
2018-06-30T10:21:33.523Z,47.37
2018-06-30T10:22:33.515Z,47.47
2018-06-30T10:23:33.511Z,47.37
2018-06-30T10:24:33.507Z,47.27
2018-06-30T10:25:33.504Z,46.98
2018-06-30T10:26:33.497Z,47.37
2018-06-30T10:27:33.494Z,46.78
2018-06-30T10:28:33.490Z,47.17
2018-06-30T10:29:33.487Z,47.47
2018-06-30T10:30:33.485Z,47.47
2018-06-30T10:31:33.477Z,47.56
2018-06-30T10:32:33.472Z,47.37
2018-06-30T10:33:33.468Z,47.08
2018-06-30T10:34:33.462Z,47.37
2018-06-30T10:35:33.458Z,46.98
2018-06-30T10:36:33.454Z,47.27
2018-06-30T10:37:33.492Z,46.88
2018-06-30T10:38:33.446Z,46.88
2018-06-30T10:39:33.444Z,47.37
2018-06-30T10:40:33.436Z,46.78
2018-06-30T10:41:33.432Z,47.17
2018-06-30T10:42:33.428Z,47.27
2018-06-30T10:43:33.426Z,46.88
2018-06-30T10:44:33.434Z,46.88
2018-06-30T10:45:33.415Z,46.50
2018-06-30T10:46:33.411Z,46.88
2018-06-30T10:47:33.406Z,46.69
2018-06-30T10:48:33.401Z,46.69
2018-06-30T10:49:33.395Z,46.69
2018-06-30T10:50:33.393Z,46.69
2018-06-30T10:51:33.390Z,46.50
2018-06-30T10:52:33.385Z,46.88
2018-06-30T10:53:33.380Z,46.88
2018-06-30T10:54:33.374Z,46.98
2018-06-30T10:55:33.374Z,46.30
2018-06-30T10:56:33.376Z,46.50
2018-06-30T10:57:33.371Z,46.01
2018-06-30T10:58:33.358Z,46.11
2018-06-30T10:59:33.356Z,46.13
2018-06-30T11:00:33.462Z,46.32
2018-06-30T11:01:33.345Z,46.51
2018-06-30T11:02:33.340Z,46.40
2018-06-30T11:03:33.337Z,46.42
2018-06-30T11:04:33.334Z,46.32
2018-06-30T11:05:33.329Z,46.32
2018-06-30T11:06:33.324Z,46.71
2018-06-30T11:07:33.320Z,45.84
2018-06-30T11:08:33.326Z,46.03
2018-06-30T11:09:33.314Z,46.13
2018-06-30T11:10:33.307Z,46.23
2018-06-30T11:11:33.302Z,46.13
2018-06-30T11:12:33.299Z,46.13
2018-06-30T11:13:33.294Z,46.13
2018-06-30T11:14:33.289Z,46.13
2018-06-30T11:15:33.285Z,46.01
2018-06-30T11:16:33.282Z,46.59
2018-06-30T11:17:33.283Z,46.50
2018-06-30T11:18:33.272Z,46.20
2018-06-30T11:19:33.269Z,46.20
2018-06-30T11:20:33.263Z,46.40
2018-06-30T11:21:33.263Z,46.01
2018-06-30T11:22:33.255Z,46.01
2018-06-30T11:23:33.404Z,46.20
2018-06-30T11:24:33.251Z,46.11
2018-06-30T11:25:33.240Z,46.11
2018-06-30T11:26:33.237Z,46.11
2018-06-30T11:27:33.232Z,46.20
2018-06-30T11:28:33.228Z,46.11
2018-06-30T11:29:33.267Z,45.91
2018-06-30T11:30:33.224Z,45.91
2018-06-30T11:31:33.308Z,46.59
2018-06-30T11:32:33.212Z,46.59
2018-06-30T11:33:33.207Z,46.11
2018-06-30T11:34:33.204Z,45.72
2018-06-30T11:35:33.356Z,45.91
2018-06-30T11:36:33.198Z,46.11
2018-06-30T11:37:33.190Z,46.20
2018-06-30T11:38:33.184Z,46.11
2018-06-30T11:39:33.182Z,46.20
2018-06-30T11:40:33.210Z,46.20
2018-06-30T11:41:33.173Z,46.20
2018-06-30T11:42:33.169Z,46.01
2018-06-30T11:43:33.214Z,46.01
2018-06-30T11:44:33.162Z,45.94
2018-06-30T11:45:33.155Z,45.52
2018-06-30T11:46:33.150Z,45.72
2018-06-30T11:47:33.148Z,45.52
2018-06-30T11:48:33.141Z,45.62
2018-06-30T11:49:33.138Z,45.52
2018-06-30T11:50:33.135Z,45.54
2018-06-30T11:51:33.129Z,45.52
2018-06-30T11:52:33.129Z,45.52
2018-06-30T11:53:33.136Z,46.01
2018-06-30T11:54:33.117Z,46.01
2018-06-30T11:55:33.114Z,46.11
2018-06-30T11:56:33.109Z,46.20
2018-06-30T11:57:33.106Z,46.01
2018-06-30T11:58:33.098Z,45.91
2018-06-30T11:59:33.097Z,46.20
2018-06-30T12:00:33.090Z,46.11
2018-06-30T12:01:33.086Z,46.11
2018-06-30T12:02:33.081Z,46.20
2018-06-30T12:03:33.126Z,46.11
2018-06-30T12:04:33.073Z,46.11
2018-06-30T12:05:33.069Z,46.20
2018-06-30T12:06:33.065Z,46.30
2018-06-30T12:07:33.061Z,46.11
2018-06-30T12:08:33.055Z,46.20
2018-06-30T12:09:33.051Z,46.11
2018-06-30T12:10:33.045Z,46.01
2018-06-30T12:11:33.041Z,45.81
2018-06-30T12:12:33.038Z,46.59
2018-06-30T12:13:33.034Z,46.50
2018-06-30T12:14:33.029Z,46.57
2018-06-30T12:15:33.025Z,46.28
2018-06-30T12:16:33.019Z,46.37
2018-06-30T12:17:33.018Z,46.18
2018-06-30T12:18:33.009Z,46.28
2018-06-30T12:19:33.006Z,46.67
2018-06-30T12:20:33.083Z,46.57
2018-06-30T12:21:32.999Z,45.79
2018-06-30T12:22:33.020Z,46.08
2018-06-30T12:23:33.003Z,46.47
2018-06-30T12:24:32.982Z,46.08
2018-06-30T12:25:32.980Z,46.47
2018-06-30T12:26:33.001Z,45.89
2018-06-30T12:27:32.999Z,45.79
2018-06-30T12:28:32.965Z,45.69
2018-06-30T12:29:32.965Z,45.69
2018-06-30T12:30:32.956Z,46.18
2018-06-30T12:31:32.952Z,46.47
2018-06-30T12:32:32.949Z,46.18
2018-06-30T12:33:32.944Z,46.47
2018-06-30T12:34:32.938Z,45.69
2018-06-30T12:35:32.935Z,45.89
2018-06-30T12:36:32.931Z,45.91
2018-06-30T12:37:32.925Z,45.91
2018-06-30T12:38:32.924Z,46.01
2018-06-30T12:39:32.981Z,46.11
2018-06-30T12:40:32.913Z,46.11
2018-06-30T12:41:32.908Z,46.01
2018-06-30T12:42:32.903Z,46.11
2018-06-30T12:43:32.899Z,46.20
2018-06-30T12:44:32.896Z,46.11
2018-06-30T12:45:32.890Z,46.11
2018-06-30T12:46:32.890Z,46.11
2018-06-30T12:47:33.008Z,46.11
2018-06-30T12:48:32.880Z,46.01
2018-06-30T12:49:32.873Z,46.01
2018-06-30T12:50:32.868Z,46.01
2018-06-30T12:51:32.863Z,46.20
2018-06-30T12:52:32.859Z,46.11